Time;durP1;ratioP1;P1;durP2;ratioP2;P2;SDS_P1;SDS_P2;PMS_P1;PMS_P2;Temp;Humidity;BMP_temperature;BMP_pressure;BME280_temperature;BME280_humidity;BME280_pressure;Samples;Min_cycle;Max_cycle;Signal;HPM_P1;HPM_P2
2023/03/07 00:01:03;;;;;;;;;;;;;;;;;;5005840;28;43441;-84
2023/03/07 00:03:29;;;;;;;;;;;;;;;;;;5006324;28;42854;-84
2023/03/07 00:05:55;;;;;;;;;;;;;;;;;;5006376;28;42982;-85
2023/03/07 00:08:21;;;;;;;;;;;;;;;;;;5005901;28;42803;-84
2023/03/07 00:10:47;;;;;;;;;;;;;;;;;;5005932;28;43156;-85
2023/03/07 00:13:13;;;;;;;;;;;;;;;;;;5005474;28;43005;-84
2023/03/07 00:15:39;;;;;;;;;;;;;;;;;;5005471;28;42838;-85
2023/03/07 00:18:06;;;;;;;;;;;;;;;;;;5005362;28;42906;-85
2023/03/07 00:20:32;;;;;;;;;;;;;;;;;;5005385;28;42853;-85
2023/03/07 00:22:58;;;;;;;;;;;;;;;;;;5005790;28;42883;-85
2023/03/07 00:25:23;;;;;;;;;;;;;;;;;;5004339;28;42992;-84
2023/03/07 00:27:49;;;;;;;;;;;;;;;;;;5004394;28;43019;-85
2023/03/07 00:30:15;;;;;;;;;;;;;;;;;;5004794;28;43655;-84
2023/03/07 00:32:41;;;;;;;;;;;;;;;;;;5004741;28;43358;-85
2023/03/07 00:35:07;;;;;;;;;;;;;;;;;;5004812;28;43585;-85
2023/03/07 00:37:33;;;;;;;;;;;;;;;;;;5005429;28;42883;-85
2023/03/07 00:39:59;;;;;;;;;;;;;;;;;;5005138;28;42789;-85
2023/03/07 00:42:25;;;;;;;;;;;;;;;;;;5002202;28;42972;-85
2023/03/07 00:44:51;;;;;;;;;;;;;;;;;;5005074;28;42956;-84
2023/03/07 00:47:16;;;;;;;;;;;;;;;;;;5005226;28;43000;-85
2023/03/07 00:49:42;;;;;;;;;;;;;;;;;;5005396;28;42981;-85
2023/03/07 00:52:08;;;;;;;;;;;;;;;;;;5005250;28;42940;-84
2023/03/07 00:54:34;;;;;;;;;;;;;;;;;;5003840;28;42986;-85
2023/03/07 00:57:00;;;;;;;;;;;;;;;;;;5005482;28;42890;-85
2023/03/07 00:59:26;;;;;;;;;;;;;;;;;;5005058;28;43643;-84
2023/03/07 01:01:52;;;;;;;;;;;;;;;;;;5005233;28;42826;-85
2023/03/07 01:04:18;;;;;;;;;;;;;;;;;;5004475;28;43482;-84
2023/03/07 01:06:44;;;;;;;;;;;;;;;;;;5004830;28;43068;-85
2023/03/07 01:09:10;;;;;;;;;;;;;;;;;;5003239;28;45802;-84
2023/03/07 01:11:35;;;;;;;;;;;;;;;;;;5004891;28;43016;-84
2023/03/07 01:14:01;;;;;;;;;;;;;;;;;;5005216;28;42940;-85
2023/03/07 01:16:27;;;;;;;;;;;;;;;;;;5003442;28;43730;-85
2023/03/07 01:18:53;;;;;;;;;;;;;;;;;;5004819;28;43032;-85
2023/03/07 01:21:19;;;;;;;;;;;;;;;;;;5004652;28;42989;-84
2023/03/07 01:23:45;;;;;;;;;;;;;;;;;;5004667;28;43108;-85
2023/03/07 01:26:11;;;;;;;;;;;;;;;;;;5004878;28;43007;-85
2023/03/07 01:28:37;;;;;;;;;;;;;;;;;;5004906;28;43374;-85
2023/03/07 01:31:03;;;;;;;;;;;;;;;;;;5003182;28;42746;-85
2023/03/07 01:33:29;;;;;;;;;;;;;;;;;;5004578;28;43094;-84
2023/03/07 01:35:54;;;;;;;;;;;;;;;;;;5005131;28;42920;-84
2023/03/07 01:38:20;;;;;;;;;;;;;;;;;;5004501;28;43295;-85
2023/03/07 01:40:46;;;;;;;;;;;;;;;;;;5004297;28;42979;-84
2023/03/07 01:43:12;;;;;;;;;;;;;;;;;;5003799;28;43014;-85
2023/03/07 01:45:38;;;;;;;;;;;;;;;;;;5004311;28;43612;-85
2023/03/07 01:48:04;;;;;;;;;;;;;;;;;;5004275;28;43351;-85
2023/03/07 01:50:30;;;;;;;;;;;;;;;;;;5019637;28;42809;-85
2023/03/07 01:52:56;;;;;;;;;;;;;;;;;;5004435;28;43677;-85
2023/03/07 01:55:22;;;;;;;;;;;;;;;;;;5002561;28;42945;-85
2023/03/07 01:57:47;;;;;;;;;;;;;;;;;;5004149;28;43609;-85
2023/03/07 02:00:17;;;;;;;;;;;;;;;;;;5003951;28;42980;-85
2023/03/07 02:02:43;;;;;;;;;;;;;;;;;;5003808;28;42992;-85
2023/03/07 02:05:09;;;;;;;;;;;;;;;;;;5004146;28;42944;-85
2023/03/07 02:07:35;;;;;;;;;;;;;;;;;;5007046;28;42744;-85
2023/03/07 02:10:01;;;;;;;;;;;;;;;;;;5007306;28;43016;-85
2023/03/07 02:12:26;;;;;;;;;;;;;;;;;;5007410;28;42811;-85
2023/03/07 02:14:52;;;;;;;;;;;;;;;;;;5007673;28;42988;-84
2023/03/07 02:17:18;;;;;;;;;;;;;;;;;;5007176;28;44279;-84
2023/03/07 02:19:44;;;;;;;;;;;;;;;;;;5007336;28;42997;-84
2023/03/07 02:22:10;;;;;;;;;;;;;;;;;;5006888;28;42922;-85
2023/03/07 02:24:36;;;;;;;;;;;;;;;;;;5008055;28;43060;-85
2023/03/07 02:27:02;;;;;;;;;;;;;;;;;;5022884;28;44738;-81
2023/03/07 02:29:28;;;;;;;;;;;;;;;;;;5004723;28;44188;-84
2023/03/07 02:31:54;;;;;;;;;;;;;;;;;;5007412;28;43069;-85
2023/03/07 02:34:20;;;;;;;;;;;;;;;;;;5007459;28;42932;-85
2023/03/07 02:36:46;;;;;;;;;;;;;;;;;;5006917;28;43787;-86
2023/03/07 02:39:11;;;;;;;;;;;;;;;;;;5006949;28;42877;-85
2023/03/07 02:41:37;;;;;;;;;;;;;;;;;;5006802;28;42953;-85
2023/03/07 02:44:03;;;;;;;;;;;;;;;;;;5006806;28;42943;-85
2023/03/07 02:46:29;;;;;;;;;;;;;;;;;;5000335;28;44057;-85
2023/03/07 02:48:55;;;;;;;;;;;;;;;;;;5006772;28;42931;-84
2023/03/07 02:51:21;;;;;;;;;;;;;;;;;;5006864;28;43637;-84
2023/03/07 02:53:47;;;;;;;;;;;;;;;;;;5006181;28;43002;-84
2023/03/07 02:56:13;;;;;;;;;;;;;;;;;;5021206;28;43527;-85
2023/03/07 02:58:39;;;;;;;;;;;;;;;;;;5006336;28;43115;-84
2023/03/07 03:01:05;;;;;;;;;;;;;;;;;;5005996;28;44025;-84
2023/03/07 03:03:31;;;;;;;;;;;;;;;;;;5004235;28;42928;-84
2023/03/07 03:05:57;;;;;;;;;;;;;;;;;;5006533;28;43939;-85
2023/03/07 03:08:23;;;;;;;;;;;;;;;;;;5006429;28;42957;-85
2023/03/07 03:10:49;;;;;;;;;;;;;;;;;;5006228;28;43755;-84
2023/03/07 03:13:14;;;;;;;;;;;;;;;;;;5020833;28;42950;-85
2023/03/07 03:15:40;;;;;;;;;;;;;;;;;;5006003;28;44036;-85
2023/03/07 03:18:06;;;;;;;;;;;;;;;;;;5004825;28;42996;-84
2023/03/07 03:20:32;;;;;;;;;;;;;;;;;;5006501;28;42862;-84
2023/03/07 03:22:58;;;;;;;;;;;;;;;;;;5006479;28;43099;-84
2023/03/07 03:25:25;;;;;;;;;;;;;;;;;;5006175;28;43530;-84
2023/03/07 03:27:51;;;;;;;;;;;;;;;;;;5003548;28;42976;-84
2023/03/07 03:30:17;;;;;;;;;;;;;;;;;;5005608;28;43129;-85
2023/03/07 03:32:43;;;;;;;;;;;;;;;;;;5006418;28;43072;-85
2023/03/07 03:35:09;;;;;;;;;;;;;;;;;;5006187;28;43746;-85
2023/03/07 03:37:35;;;;;;;;;;;;;;;;;;5005427;28;43240;-84
2023/03/07 03:40:02;;;;;;;;;;;;;;;;;;5005660;28;43633;-84
2023/03/07 03:42:27;;;;;;;;;;;;;;;;;;5004676;28;42900;-84
2023/03/07 03:44:53;;;;;;;;;;;;;;;;;;5005006;28;42916;-85
2023/03/07 03:47:19;;;;;;;;;;;;;;;;;;5004480;28;42955;-84
2023/03/07 03:49:45;;;;;;;;;;;;;;;;;;5005147;28;42993;-85
2023/03/07 03:52:11;;;;;;;;;;;;;;;;;;5006477;28;42929;-84
2023/03/07 03:54:37;;;;;;;;;;;;;;;;;;5005818;28;43845;-85
2023/03/07 03:57:03;;;;;;;;;;;;;;;;;;5005418;28;43152;-84
2023/03/07 03:59:29;;;;;;;;;;;;;;;;;;4996832;28;43248;-83
2023/03/07 04:01:55;;;;;;;;;;;;;;;;;;5006615;28;43097;-86
2023/03/07 04:04:21;;;;;;;;;;;;;;;;;;5003245;28;44336;-85
2023/03/07 04:06:47;;;;;;;;;;;;;;;;;;5013642;28;43602;-85
2023/03/07 04:09:13;;;;;;;;;;;;;;;;;;5012370;28;43679;-85
2023/03/07 04:11:38;;;;;;;;;;;;;;;;;;5019426;28;43132;-86
2023/03/07 04:14:04;;;;;;;;;;;;;;;;;;5004715;28;42909;-86
2023/03/07 04:16:30;;;;;;;;;;;;;;;;;;5005554;28;43076;-85
2023/03/07 04:18:56;;;;;;;;;;;;;;;;;;5002796;28;43491;-86
2023/03/07 04:21:22;;;;;;;;;;;;;;;;;;5005324;28;42992;-85
2023/03/07 04:23:54;;;;;;;;;;;17.90;80.90;;;;;;5005135;28;42715;-85
2023/03/07 04:26:20;;;;;;;;;;;;;;;;;;5006275;28;42872;-86
2023/03/07 04:28:47;;;;;;;;;;;;;;;;;;5014176;28;43792;-86
2023/03/07 04:31:13;;;;;;;;;;;;;;;;;;5007672;28;43195;-85
2023/03/07 04:33:39;;;;;;;;;;;;;;;;;;5004481;28;42956;-86
2023/03/07 04:36:05;;;;;;;;;;;;;;;;;;5004685;28;43038;-86
2023/03/07 04:38:31;;;;;;;;;;;;;;;;;;5003333;28;45295;-85
2023/03/07 04:40:57;;;;;;;;;;;;;;;;;;5005026;28;42843;-86
2023/03/07 04:43:23;;;;;;;;;;;;;;;;;;5003558;28;43012;-87
2023/03/07 04:45:49;;;;;;;;;;;;;;;;;;5003989;28;42948;-87
2023/03/07 04:48:15;;;;;;;;;;;;;;;;;;5003488;28;42990;-85
2023/03/07 04:50:41;;;;;;;;;;;;;;;;;;5004704;28;43335;-86
2023/03/07 04:53:06;;;;;;;;;;;;;;;;;;5004348;28;43874;-86
2023/03/07 04:55:32;;;;;;;;;;;;;;;;;;5010036;28;43023;-86
2023/03/07 04:57:58;;;;;;;;;;;;;;;;;;5015488;28;43682;-86
2023/03/07 05:00:24;;;;;;;;;;;;;;;;;;5012608;28;43022;-86
2023/03/07 05:02:50;;;;;;;;;;;;;;;;;;5012720;28;43509;-86
2023/03/07 05:05:16;;;;;;;;;;;;;;;;;;5014576;28;42994;-86
2023/03/07 05:07:42;;;;;;;;;;;;;;;;;;5013083;28;43841;-86
2023/03/07 05:10:08;;;;;;;;;;;;;;;;;;5013906;28;42919;-86
2023/03/07 05:12:33;;;;;;;;;;;;;;;;;;5012875;28;43460;-85
2023/03/07 05:14:59;;;;;;;;;;;;;;;;;;5027065;28;43020;-86
2023/03/07 05:17:25;;;;;;;;;;;;;;;;;;5006518;28;42989;-87
2023/03/07 05:19:53;;;;;;;;;;;;;;;;;;5027780;28;43223;-86
2023/03/07 05:22:19;;;;;;;;;;;;;;;;;;5005596;28;44531;-86
2023/03/07 05:24:45;;;;;;;;;;;;;;;;;;4995251;28;43059;-85
2023/03/07 05:27:11;;;;;;;;;;;;;;;;;;5017752;28;44723;-86
2023/03/07 05:29:37;;;;;;;;;;;;;;;;;;5013263;28;42971;-85
2023/03/07 05:32:03;;;;;;;;;;;;;;;;;;5013036;28;43063;-86
2023/03/07 05:34:29;;;;;;;;;;;;;;;;;;5004703;28;42857;-89
2023/03/07 05:36:57;;;;;;;;;;;;;;;;;;5004247;28;43954;-82
2023/03/07 05:39:23;;;;;;;;;;;;;;;;;;5004291;28;42893;-84
2023/03/07 05:41:48;;;;;;;;;;;;;;;;;;5004817;28;43583;-85
2023/03/07 05:44:14;;;;;;;;;;;;;;;;;;5014941;28;43163;-87
2023/03/07 05:46:40;;;;;;;;;;;;;;;;;;5015610;28;43796;-87
2023/03/07 05:49:06;;;;;;;;;;;;;;;;;;5018127;28;43093;-86
2023/03/07 05:51:32;;;;;;;;;;;;;;;;;;5016101;28;42958;-85
2023/03/07 05:53:58;;;;;;;;;;;;;;;;;;5009934;28;43043;-85
2023/03/07 05:56:24;;;;;;;;;;;;;;;;;;5006627;28;42920;-85
2023/03/07 05:58:50;;;;;;;;;;;;;;;;;;5005519;28;42940;-83
2023/03/07 06:01:16;;;;;;;;;;;;;;;;;;5006691;28;43185;-84
2023/03/07 06:03:43;;;;;;;;;;;;;;;;;;5015386;28;43581;-82
2023/03/07 06:06:09;;;;;;;;;;;;;;;;;;5016348;28;44434;-82
2023/03/07 06:08:35;;;;;;;;;;;;;;;;;;5009364;28;42811;-82
2023/03/07 06:11:01;;;;;;;;;;;;;;;;;;5007693;28;43355;-82
2023/03/07 06:13:27;;;;;;;;;;;;;;;;;;5008150;28;43012;-81
2023/03/07 06:15:53;;;;;;;;;;;;;;;;;;5026853;28;43439;-81
2023/03/07 06:18:19;;;;;;;;;;;;;;;;;;5024744;28;42837;-80
2023/03/07 06:20:45;;;;;;;;;;;;;;;;;;5015374;28;43078;-80
2023/03/07 06:23:11;;;;;;;;;;;;;;;;;;5025938;28;42982;-80
2023/03/07 06:25:37;;;;;;;;;;;;;;;;;;5026916;28;43358;-79
2023/03/07 06:28:03;;;;;;;;;;;;;;;;;;5017521;28;42968;-79
2023/03/07 06:30:29;;;;;;;;;;;;;;;;;;5008757;28;43617;-81
2023/03/07 06:32:54;;;;;;;;;;;;;;;;;;4995572;28;42960;-79
2023/03/07 06:35:20;;;;;;;;;;;;;;;;;;5026058;28;42961;-79
2023/03/07 06:37:46;;;;;;;;;;;;;;;;;;5019940;28;43059;-84
2023/03/07 06:40:12;;;;;;;;;;;;;;;;;;5006546;28;43634;-79
2023/03/07 06:42:38;;;;;;;;;;;;;;;;;;5006450;28;43080;-81
2023/03/07 06:45:04;;;;;;;;;;;;;;;;;;4997471;28;45281;-80
2023/03/07 06:47:30;;;;;;;;;;;;;;;;;;5021504;28;42983;-80
2023/03/07 06:49:56;;;;;;;;;;;;;;;;;;5026480;28;42923;-80
2023/03/07 06:52:22;;;;;;;;;;;;;;;;;;5027345;28;42931;-80
2023/03/07 06:54:47;;;;;;;;;;;;;;;;;;5026569;28;43080;-80
2023/03/07 06:57:13;;;;;;;;;;;;;;;;;;5027130;28;42964;-80
2023/03/07 06:59:39;;;;;;;;;;;;;;;;;;5026948;28;43025;-80
2023/03/07 07:02:05;;;;;;;;;;;;;;;;;;5026858;28;42915;-79
2023/03/07 07:04:31;;;;;;;;;;;;;;;;;;5026610;28;42952;-80
2023/03/07 07:06:57;;;;;;;;;;;;;;;;;;5026536;28;43119;-80
2023/03/07 07:09:23;;;;;;;;;;;;;;;;;;5026605;28;42825;-79
2023/03/07 07:11:49;;;;;;;;;;;;;;;;;;5026886;28;42956;-79
2023/03/07 07:14:14;;;;;;;;;;;;;;;;;;5026619;28;43500;-80
2023/03/07 07:16:40;;;;;;;;;;;;;;;;;;5026641;28;42912;-80
2023/03/07 07:19:06;;;;;;;;;;;;;;;;;;5041665;28;43778;-79
2023/03/07 07:21:32;;;;;;;;;;;;;;;;;;5026458;28;42992;-79
2023/03/07 07:23:58;;;;;;;;;;;;;;;;;;5026381;28;42861;-80
2023/03/07 07:26:25;;;;;;;;;;;;;;;;;;5026759;28;43136;-80
2023/03/07 07:28:51;;;;;;;;;;;;;;;;;;5026391;28;44085;-80
2023/03/07 07:31:17;;;;;;;;;;;;;;;;;;5026108;28;42877;-80
2023/03/07 07:33:42;;;;;;;;;;;;;;;;;;5026059;28;42883;-80
2023/03/07 07:36:08;;;;;;;;;;;;;;;;;;5026324;28;42872;-79
2023/03/07 07:38:34;;;;;;;;;;;;;;;;;;5025926;28;43453;-81
2023/03/07 07:41:01;;;;;;;;;;;;;;;;;;5025878;28;42975;-79
2023/03/07 07:43:27;;;;;;;;;;;;;;;;;;5025911;28;43561;-80
2023/03/07 07:45:52;;;;;;;;;;;;;;;;;;5026138;28;42927;-79
2023/03/07 07:48:18;;;;;;;;;;;;;;;;;;5026047;28;42911;-80
2023/03/07 07:50:44;;;;;;;;;;;;;;;;;;5025741;28;43064;-80
2023/03/07 07:53:10;;;;;;;;;;;;;;;;;;5026058;28;43464;-79
2023/03/07 07:55:36;;;;;;;;;;;;;;;;;;5025750;28;43008;-79
2023/03/07 07:58:02;;;;;;;;;;;;;;;;;;5025852;28;42936;-80
2023/03/07 08:00:28;;;;;;;;;;;;;;;;;;5026152;28;43128;-80
2023/03/07 08:02:54;;;;;;;;;;;;;;;;;;5025265;28;43901;-80
2023/03/07 08:05:20;;;;;;;;;;;;;;;;;;5040445;28;42888;-80
2023/03/07 08:07:46;;;;;;;;;;;;;;;;;;5040215;28;44353;-80
2023/03/07 08:10:14;;;;;;;;;;;;;;;;;;5025269;28;42916;-80
2023/03/07 08:12:40;;;;;;;;;;;;;;;;;;5024856;28;43546;-80
2023/03/07 08:15:06;;;;;;;;;;;;;;;;;;5025350;28;43386;-80
2023/03/07 08:17:32;;;;;;;;;;;;;;;;;;5025757;28;42903;-80
2023/03/07 08:20:00;;;;;;;;;;;;;;;;;;5025835;28;42924;-80
2023/03/07 08:22:26;;;;;;;;;;;;;;;;;;5025544;28;42877;-80
2023/03/07 08:24:52;;;;;;;;;;;;;;;;;;5025690;28;42925;-80
2023/03/07 08:27:18;;;;;;;;;;;;;;;;;;5025206;28;42805;-80
2023/03/07 08:29:43;;;;;;;;;;;;;;;;;;5025726;28;42754;-80
2023/03/07 08:32:09;;;;;;;;;;;;;;;;;;5025921;28;43472;-80
2023/03/07 08:34:35;;;;;;;;;;;;;;;;;;5025776;28;42972;-80
2023/03/07 08:37:01;;;;;;;;;;;;;;;;;;5025163;28;43802;-80
2023/03/07 08:39:27;;;;;;;;;;;;;;;;;;5025440;28;42879;-80
2023/03/07 08:41:54;;;;;;;;;;;;;;;;;;5024961;28;43533;-80
2023/03/07 08:44:20;;;;;;;;;;;;;;;;;;5025496;28;42765;-80
2023/03/07 08:46:45;;;;;;;;;;;;;;;;;;5024590;28;42987;-80
2023/03/07 08:49:11;;;;;;;;;;;;;;;;;;5024880;28;42892;-80
2023/03/07 08:51:37;;;;;;;;;;;;;;;;;;5025021;28;42834;-80
2023/03/07 08:54:03;;;;;;;;;;;;;;;;;;5025109;28;42817;-80
2023/03/07 08:56:29;;;;;;;;;;;;;;;;;;5024888;28;43488;-80
2023/03/07 08:58:55;;;;;;;;;;;;;;;;;;5024908;28;42887;-80
2023/03/07 09:01:21;;;;;;;;;;;;;;;;;;5024512;28;43672;-80
2023/03/07 09:03:47;;;;;;;;;;;;;;;;;;5025022;28;42953;-80
2023/03/07 09:06:13;;;;;;;;;;;;;;;;;;5024959;28;43606;-80
2023/03/07 09:08:39;;;;;;;;;;;;;;;;;;5024630;28;42873;-80
2023/03/07 09:11:04;;;;;;;;;;;;;;;;;;5024902;28;44009;-81
2023/03/07 09:13:30;;;;;;;;;;;;;;;;;;5025124;28;42920;-80
2023/03/07 09:15:56;;;;;;;;;;;;;;;;;;5040227;28;44636;-80
2023/03/07 09:18:22;;;;;;;;;;;;;;;;;;5028163;28;42940;-80
2023/03/07 09:20:48;;;;;;;;;;;;;;;;;;5028846;28;43005;-80
2023/03/07 09:23:14;;;;;;;;;;;;;;;;;;5027773;28;42929;-80
2023/03/07 09:25:40;;;;;;;;;;;;;;;;;;5028002;28;42960;-80
2023/03/07 09:28:06;;;;;;;;;;;;;;;;;;5028517;28;42951;-80
2023/03/07 09:30:32;;;;;;;;;;;;;;;;;;5028247;28;43359;-80
2023/03/07 09:32:57;;;;;;;;;;;;;;;;;;5027951;28;42968;-80
2023/03/07 09:35:23;;;;;;;;;;;;;;;;;;5027760;28;42943;-80
2023/03/07 09:37:50;;;;;;;;;;;;;;;;;;5028115;28;42972;-80
2023/03/07 09:40:16;;;;;;;;;;;;;;;;;;5027841;28;43078;-81
2023/03/07 09:42:42;;;;;;;;;;;;;;;;;;5028332;28;43032;-80
2023/03/07 09:45:07;;;;;;;;;;;;;;;;;;5027684;28;43642;-80
2023/03/07 09:47:33;;;;;;;;;;;;;;;;;;5027477;28;42749;-79
2023/03/07 09:50:00;;;;;;;;;;;;;;;;;;5027557;28;43677;-80
2023/03/07 09:52:25;;;;;;;;;;;;;;;;;;5028175;28;42812;-80
2023/03/07 09:54:51;;;;;;;;;;;;;;;;;;5027395;28;42932;-80
2023/03/07 09:57:17;;;;;;;;;;;;;;;;;;5027780;28;42849;-80
2023/03/07 09:59:43;;;;;;;;;;;;;;;;;;5027412;28;42893;-80
2023/03/07 10:02:09;;;;;;;;;;;;;;;;;;5027984;28;42793;-80
2023/03/07 10:04:35;;;;;;;;;;;;;;;;;;5027829;28;42896;-80
2023/03/07 10:07:01;;;;;;;;;;;;;;;;;;5027454;28;42935;-80
2023/03/07 10:09:27;;;;;;;;;;;;;;;;;;5027255;28;42873;-80
2023/03/07 10:11:53;;;;;;;;;;;;;;;;;;5027469;28;42870;-80
2023/03/07 10:14:19;;;;;;;;;;;;;;;;;;5027243;28;43649;-81
2023/03/07 10:16:45;;;;;;;;;;;;;;;;;;5027240;28;42955;-79
2023/03/07 10:19:11;;;;;;;;;;;;;;;;;;5027397;28;43825;-80
2023/03/07 10:21:37;;;;;;;;;;;;;;;;;;5027775;28;42948;-81
2023/03/07 10:24:03;;;;;;;;;;;;;;;;;;5027597;28;43500;-80
2023/03/07 10:26:29;;;;;;;;;;;;;;;;;;5027339;28;42848;-80
2023/03/07 10:28:55;;;;;;;;;;;;;;;;;;5027052;28;43878;-80
2023/03/07 10:31:21;;;;;;;;;;;;;;;;;;5027157;28;43029;-80
2023/03/07 10:33:46;;;;;;;;;;;;;;;;;;5027292;28;42927;-80
2023/03/07 10:36:12;;;;;;;;;;;;;;;;;;5027271;28;42866;-80
2023/03/07 10:38:38;;;;;;;;;;;;;;;;;;5027402;28;42971;-80
2023/03/07 10:41:04;;;;;;;;;;;;;;;;;;5027285;28;42836;-80
2023/03/07 10:43:30;;;;;;;;;;;;;;;;;;5027118;28;43345;-80
2023/03/07 10:45:56;;;;;;;;;;;;;;;;;;5027109;28;42891;-80
2023/03/07 10:48:22;;;;;;;;;;;;;;;;;;5027027;28;42877;-80
2023/03/07 10:50:48;;;;;;;;;;;;;;;;;;5026930;28;42836;-80
2023/03/07 10:53:14;;;;;;;;;;;;;;;;;;5026796;28;42927;-80
2023/03/07 10:55:40;;;;;;;;;;;;;;;;;;5026920;28;43109;-79
2023/03/07 10:58:06;;;;;;;;;;;;;;;;;;5026904;28;43634;-80
2023/03/07 11:00:31;;;;;;;;;;;;;;;;;;5027093;28;42932;-80
2023/03/07 11:02:57;;;;;;;;;;;;;;;;;;5026842;28;42964;-80
2023/03/07 11:05:23;;;;;;;;;;;;;;;;;;5027064;28;42993;-80
2023/03/07 11:07:49;;;;;;;;;;;;;;;;;;5026497;28;43233;-79
2023/03/07 11:10:15;;;;;;;;;;;;;;;;;;5027050;28;42983;-79
2023/03/07 11:12:41;;;;;;;;;;;;;;;;;;5026731;28;42961;-80
2023/03/07 11:15:07;;;;;;;;;;;;;;;;;;5026883;28;43095;-80
2023/03/07 11:17:33;;;;;;;;;;;;;;;;;;5026263;28;42879;-80
2023/03/07 11:19:58;;;;;;;;;;;;;;;;;;5026628;28;42963;-79
2023/03/07 11:22:24;;;;;;;;;;;;;;;;;;5026386;28;42916;-80
2023/03/07 11:24:50;;;;;;;;;;;;;;;;;;5026433;28;43039;-80
2023/03/07 11:27:16;;;;;;;;;;;;;;;;;;5025969;28;43464;-80
2023/03/07 11:29:42;;;;;;;;;;;;;;;;;;5026655;28;43064;-80
2023/03/07 11:32:08;;;;;;;;;;;;;;;;;;5026669;28;43470;-80
2023/03/07 11:34:34;;;;;;;;;;;;;;;;;;5026746;28;43026;-80
2023/03/07 11:37:00;;;;;;;;;;;;;;;;;;5041040;28;43784;-80
2023/03/07 11:39:26;;;;;;;;;;;;;;;;;;5025071;28;42845;-80
2023/03/07 11:41:52;;;;;;;;;;;;;;;;;;5025918;28;42853;-81
2023/03/07 11:44:18;;;;;;;;;;;;;;;;;;5007232;28;42994;-79
2023/03/07 11:46:44;;;;;;;;;;;;;;;;;;4991451;28;42898;-79
2023/03/07 11:49:09;;;;;;;;;;;;;;;;;;4990675;28;42997;-79
2023/03/07 11:51:35;;;;;;;;;;;;;;;;;;4995763;28;42910;-79
2023/03/07 11:54:01;;;;;;;;;;;;;;;;;;4986445;28;42855;-80
2023/03/07 11:56:27;;;;;;;;;;;;;;;;;;4986282;28;43894;-78
2023/03/07 11:58:53;;;;;;;;;;;;;;;;;;4986329;28;42826;-85
2023/03/07 12:01:19;;;;;;;;;;;;;;;;;;4988387;28;43143;-79
2023/03/07 12:03:45;;;;;;;;;;;;;;;;;;4995176;28;42989;-78
2023/03/07 12:06:11;;;;;;;;;;;;;;;;;;4986329;28;43584;-80
2023/03/07 12:08:37;;;;;;;;;;;;;;;;;;4986059;28;42866;-80
2023/03/07 12:13:53;;;;;;;;;;;;;;;;;;5022720;28;42762;-80
2023/03/07 12:16:22;;;;;;;;;;;;;;;;;;5024916;28;42991;-80
2023/03/07 12:30:13;;;;;;;;;;;;;;;;;;5044824;28;59146;-80
2023/03/07 12:32:39;;;;;;;;;;;;;;;;;;5044645;28;43544;-79
2023/03/07 12:35:05;;;;;;;;;;;;;;;;;;5044848;28;42797;-81
2023/03/07 12:37:31;;;;;;;;;;;;;;;;;;5044437;28;43435;-80
2023/03/07 12:39:56;;;;;;;;;;;;;;;;;;5044526;28;42949;-79
2023/03/07 12:42:22;;;;;;;;;;;;;;;;;;5043952;28;43723;-80
2023/03/07 12:44:48;;;;;;;;;;;;;;;;;;5044613;28;43541;-80
2023/03/07 12:47:15;;;;;;;;;;;;;;;;;;5044147;28;44226;-80
2023/03/07 12:49:41;;;;;;;;;;;;;;;;;;5044122;28;42955;-81
2023/03/07 12:52:06;;;;;;;;;;;;;;;;;;5044239;28;42893;-80
2023/03/07 12:54:32;;;;;;;;;;;;;;;;;;5044832;28;43032;-83
2023/03/07 12:56:58;;;;;;;;;;;;;;;;;;5033044;28;43089;-80
2023/03/07 12:59:24;;;;;;;;;;;;;;;;;;5024724;28;42889;-79
2023/03/07 13:01:50;;;;;;;;;;;;;;;;;;5024672;28;43316;-80
2023/03/07 13:04:16;;;;;;;;;;;;;;;;;;5024568;28;42915;-80
2023/03/07 13:06:42;;;;;;;;;;;;;;;;;;5022407;28;44167;-80
2023/03/07 13:09:11;;;;;;;;;;;;;;;;;;5021658;28;42978;-80
2023/03/07 13:11:37;;;;;;;;;;;;;;;;;;5024062;28;42980;-80
2023/03/07 13:14:03;;;;;;;;;;;;;;;;;;5024403;28;42812;-79
2023/03/07 13:16:29;;;;;;;;;;;;;;;;;;5022762;28;43719;-79
2023/03/07 13:18:55;;;;;;;;;;;;;;;;;;5024071;28;42864;-80
2023/03/07 13:21:21;;;;;;;;;;;;;;;;;;5022297;28;45296;-80
2023/03/07 13:23:47;;;;;;;;;;;;;;;;;;5022393;28;42848;-80
2023/03/07 13:26:13;;;;;;;;;;;;;;;;;;5023703;28;42943;-80
2023/03/07 13:28:39;;;;;;;;;;;;;;;;;;5021568;28;42928;-80
2023/03/07 13:31:04;;;;;;;;;;;;;;;;;;5024306;28;43612;-80
2023/03/07 13:33:30;;;;;;;;;;;;;;;;;;5020628;28;43018;-80
2023/03/07 13:35:57;;;;;;;;;;;;;;;;;;5013942;28;43027;-79
2023/03/07 13:38:22;;;;;;;;;;;;;;;;;;5019822;28;42971;-84
2023/03/07 13:40:49;;;;;;;;;;;;;;;;;;5022350;28;43737;-80
2023/03/07 13:43:15;;;;;;;;;;;;;;;;;;5019004;28;42993;-81
2023/03/07 13:45:41;;;;;;;;;;;;;;;;;;5013438;28;43457;-81
2023/03/07 13:48:07;;;;;;;;;;;;;;;;;;5013567;28;42924;-81
2023/03/07 13:50:33;;;;;;;;;;;;;;;;;;5013568;28;43744;-81
2023/03/07 13:52:59;;;;;;;;;;;;;;;;;;5015018;28;42943;-81
2023/03/07 13:55:25;;;;;;;;;;;;;;;;;;5022146;28;43446;-81
2023/03/07 13:57:50;;;;;;;;;;;;;;;;;;5015638;28;42904;-81
2023/03/07 14:00:16;;;;;;;;;;;;;;;;;;5015626;28;43569;-82
2023/03/07 14:02:42;;;;;;;;;;;;;;;;;;5022353;28;42947;-80
2023/03/07 14:05:08;;;;;;;;;;;;;;;;;;5025426;28;43123;-81
2023/03/07 14:07:34;;;;;;;;;;;;;;;;;;5026946;28;42979;-81
2023/03/07 14:10:00;;;;;;;;;;;;;;;;;;5027055;28;43027;-79
2023/03/07 14:12:26;;;;;;;;;;;;;;;;;;5027094;28;42965;-82
2023/03/07 14:14:52;;;;;;;;;;;;;;;;;;5027148;28;42843;-81
2023/03/07 14:17:18;;;;;;;;;;;;;;;;;;5025200;28;42940;-82
2023/03/07 14:19:44;;;;;;;;;;;;;;;;;;5026552;28;42832;-95
2023/03/07 14:22:10;;;;;;;;;;;;;;;;;;5025607;28;42999;-80
2023/03/07 14:24:35;;;;;;;;;;;;;;;;;;5027038;28;43747;-81
2023/03/07 14:27:01;;;;;;;;;;;;;;;;;;5027710;28;43014;-80
2023/03/07 14:29:28;;;;;;;;;;;;;;;;;;5026790;28;42833;-80
2023/03/07 14:31:55;;;;;;;;;;;;;;;;;;5026428;28;43056;-88
2023/03/07 14:34:21;;;;;;;;;;;;;;;;;;5022891;28;44019;-83
2023/03/07 14:36:47;;;;;;;;;;;;;;;;;;5024970;28;43136;-81
2023/03/07 14:39:13;;;;;;;;;;;;;;;;;;5018468;28;43030;-86
2023/03/07 14:41:39;;;;;;;;;;;;;;;;;;5016345;28;42982;-84
2023/03/07 14:44:05;;;;;;;;;;;;;;;;;;5017399;28;43632;-84
2023/03/07 14:46:31;;;;;;;;;;;;;;;;;;5017749;28;42963;-87
2023/03/07 14:48:57;;;;;;;;;;;;;;;;;;5017980;28;43312;-85
2023/03/07 14:51:23;;;;;;;;;;;;;;;;;;5016887;28;42940;-84
2023/03/07 14:53:49;;;;;;;;;;;;;;;;;;5014951;28;43064;-89
2023/03/07 14:56:15;;;;;;;;;;;;;;;;;;5016879;28;42999;-83
2023/03/07 14:58:41;;;;;;;;;;;;;;;;;;5018923;28;43650;-84
2023/03/07 15:01:07;;;;;;;;;;;;;;;;;;5015085;28;43002;-88
2023/03/07 15:03:33;;;;;;;;;;;;;;;;;;5016424;28;43999;-86
2023/03/07 15:05:59;;;;;;;;;;;;;;;;;;5014733;28;42946;-88
2023/03/07 15:08:25;;;;;;;;;;;;;;;;;;5017393;28;43015;-83
2023/03/07 15:10:50;;;;;;;;;;;;;;;;;;5022393;28;43043;-84
2023/03/07 15:13:16;;;;;;;;;;;;;;;;;;5021621;28;43019;-85
2023/03/07 15:15:42;;;;;;;;;;;;;;;;;;5018062;28;43044;-85
2023/03/07 15:18:08;;;;;;;;;;;;;;;;;;5016295;28;42959;-87
2023/03/07 15:20:34;;;;;;;;;;;;;;;;;;5015455;28;43352;-86
2023/03/07 15:23:00;;;;;;;;;;;;;;;;;;5015438;28;43525;-83
2023/03/07 15:25:26;;;;;;;;;;;;;;;;;;5014813;28;42939;-84
2023/03/07 15:27:52;;;;;;;;;;;;;;;;;;5022834;28;42978;-88
2023/03/07 15:30:18;;;;;;;;;;;;;;;;;;5026292;28;42883;-90
2023/03/07 15:32:43;;;;;;;;;;;;;;;;;;5025750;28;42943;-88
2023/03/07 15:35:09;;;;;;;;;;;;;;;;;;5020487;28;42966;-83
2023/03/07 15:37:36;;;;;;;;;;;;;;;;;;5019270;28;43422;-92
2023/03/07 15:40:02;;;;;;;;;;;;;;;;;;5015571;28;42956;-83
2023/03/07 15:42:28;;;;;;;;;;;;;;;;;;5016450;28;42975;-84
2023/03/07 15:44:54;;;;;;;;;;;;;;;;;;5023164;28;42744;-89
2023/03/07 15:47:20;;;;;;;;;;;;;;;;;;5023949;28;43626;-84
2023/03/07 15:49:45;;;;;;;;;;;;;;;;;;5014263;28;43018;-88
2023/03/07 15:52:11;;;;;;;;;;;;;;;;;;5014852;28;44484;-84
2023/03/07 15:54:38;;;;;;;;;;;;;;;;;;5023299;28;42991;-83
2023/03/07 15:57:04;;;;;;;;;;;;;;;;;;5015247;28;43078;-84
2023/03/07 15:59:30;;;;;;;;;;;;;;;;;;5016807;28;43012;-88
2023/03/07 16:01:55;;;;;;;;;;;;;;;;;;5015223;28;43740;-87
2023/03/07 16:04:21;;;;;;;;;;;;;;;;;;5015658;28;43000;-89
2023/03/07 16:06:47;;;;;;;;;;;;;;;;;;5013898;28;42923;-82
2023/03/07 16:09:13;;;;;;;;;;;;;;;;;;5015965;28;42963;-83
2023/03/07 16:11:39;;;;;;;;;;;;;;;;;;5012903;28;44478;-81
2023/03/07 16:14:05;;;;;;;;;;;;;;;;;;5017392;28;43221;-83
2023/03/07 16:16:31;;;;;;;;;;;;;;;;;;5018086;28;43548;-83
2023/03/07 16:18:57;;;;;;;;;;;;;;;;;;5020750;28;43045;-81
2023/03/07 16:21:23;;;;;;;;;;;;;;;;;;5016169;28;43415;-82
2023/03/07 16:23:49;;;;;;;;;;;;;;;;;;5013424;28;42870;-81
2023/03/07 16:26:15;;;;;;;;;;;;;;;;;;5014648;28;43984;-83
2023/03/07 16:28:41;;;;;;;;;;;;;;;;;;5015226;28;43052;-81
2023/03/07 16:31:07;;;;;;;;;;;;;;;;;;5014212;28;43672;-80
2023/03/07 16:33:33;;;;;;;;;;;;;;;;;;5015887;28;42923;-86
2023/03/07 16:35:59;;;;;;;;;;;;;;;;;;5013125;28;45331;-86
2023/03/07 16:38:25;;;;;;;;;;;;;;;;;;5015946;28;42918;-80
2023/03/07 16:40:51;;;;;;;;;;;;;;;;;;5021524;28;43018;-80
2023/03/07 16:43:16;;;;;;;;;;;;;;;;;;5023887;28;42749;-85
2023/03/07 16:45:42;;;;;;;;;;;;;;;;;;5023523;28;42885;-87
2023/03/07 16:48:08;;;;;;;;;;;;;;;;;;5022956;28;42962;-82
2023/03/07 16:50:34;;;;;;;;;;;;;;;;;;5022708;28;43257;-85